createdAt,value
2023-03-05T00:00:44.371Z,0.00
2023-03-05T00:01:44.503Z,0.00
2023-03-05T00:02:43.517Z,0.00
2023-03-05T00:03:43.469Z,0.00
2023-03-05T00:04:43.458Z,0.00
2023-03-05T00:05:43.703Z,0.00
2023-03-05T00:06:43.456Z,0.00
2023-03-05T00:07:43.464Z,0.00
2023-03-05T00:08:43.430Z,0.00
2023-03-05T00:09:43.419Z,0.00
2023-03-05T00:10:43.403Z,0.00
2023-03-05T00:11:43.409Z,0.00
2023-03-05T00:12:43.402Z,0.00
2023-03-05T00:13:43.400Z,0.00
2023-03-05T00:14:43.760Z,0.00
2023-03-05T00:15:43.426Z,0.00
2023-03-05T00:16:43.770Z,0.00
2023-03-05T00:17:43.368Z,0.00
2023-03-05T00:18:43.370Z,0.00
2023-03-05T00:19:43.358Z,0.00
2023-03-05T00:20:43.431Z,0.00
2023-03-05T00:21:43.392Z,0.00
2023-03-05T00:22:43.337Z,0.00
2023-03-05T00:23:43.315Z,0.00
2023-03-05T00:24:43.305Z,0.00
2023-03-05T00:25:43.624Z,0.00
2023-03-05T00:26:43.301Z,0.00
2023-03-05T00:27:43.305Z,0.00
2023-03-05T00:28:43.417Z,0.00
2023-03-05T00:29:43.275Z,0.00
2023-03-05T00:30:43.279Z,0.00
2023-03-05T00:31:43.265Z,0.00
2023-03-05T00:32:43.286Z,0.00
2023-03-05T00:33:43.258Z,0.00
2023-03-05T00:34:43.254Z,0.00
2023-03-05T00:35:43.287Z,0.00
2023-03-05T00:36:43.253Z,0.00
2023-03-05T00:37:43.249Z,0.00
2023-03-05T00:38:43.245Z,0.00
2023-03-05T00:39:43.229Z,0.00
2023-03-05T00:40:43.237Z,0.00
2023-03-05T00:41:43.219Z,0.00
2023-03-05T00:42:43.345Z,0.00
2023-03-05T00:43:43.354Z,0.00
2023-03-05T00:44:43.346Z,0.00
2023-03-05T00:45:43.190Z,0.00
2023-03-05T00:46:43.265Z,0.00
2023-03-05T00:47:43.165Z,0.00
2023-03-05T00:48:43.374Z,0.00
2023-03-05T00:49:43.383Z,0.00
2023-03-05T00:50:43.153Z,0.00
2023-03-05T00:51:43.174Z,0.00
2023-03-05T00:52:43.404Z,0.00
2023-03-05T00:53:43.142Z,0.00
2023-03-05T00:54:43.125Z,0.00
2023-03-05T00:55:43.218Z,0.00
2023-03-05T00:56:43.440Z,0.00
2023-03-05T00:57:43.261Z,0.00
2023-03-05T01:00:09.147Z,0.00
2023-03-05T01:01:09.060Z,0.00
2023-03-05T01:02:09.036Z,0.00
2023-03-05T01:03:09.034Z,0.00
2023-03-05T01:04:09.141Z,0.00
2023-03-05T01:05:09.034Z,0.00
2023-03-05T01:06:09.007Z,0.00
2023-03-05T01:07:08.993Z,0.00
2023-03-05T01:08:08.983Z,0.00
2023-03-05T01:09:08.981Z,0.00
2023-03-05T01:10:09.664Z,0.00
2023-03-05T01:11:09.720Z,0.00
2023-03-05T01:12:09.120Z,0.00
2023-03-05T01:13:09.456Z,0.00
2023-03-05T01:14:09.504Z,0.00
2023-03-05T01:15:09.756Z,0.00
2023-03-05T01:16:09.717Z,0.00
2023-03-05T01:17:08.936Z,0.00
2023-03-05T01:18:08.968Z,0.00
2023-03-05T01:19:08.950Z,0.00
2023-03-05T01:20:08.918Z,0.00
2023-03-05T01:21:08.910Z,0.00
2023-03-05T01:22:08.909Z,0.00
2023-03-05T01:23:08.948Z,0.00
2023-03-05T01:24:08.976Z,0.00
2023-03-05T01:25:08.917Z,0.00
2023-03-05T01:26:08.924Z,0.00
2023-03-05T01:27:08.936Z,0.00
2023-03-05T01:28:08.936Z,0.00
2023-03-05T01:29:08.944Z,0.00
2023-03-05T01:30:08.951Z,0.00
2023-03-05T01:31:09.021Z,0.00
2023-03-05T01:32:09.038Z,0.00
2023-03-05T01:33:08.964Z,0.00
2023-03-05T01:34:08.970Z,0.00
2023-03-05T01:35:08.798Z,0.00
2023-03-05T01:36:08.877Z,0.00
2023-03-05T01:37:09.742Z,0.00
2023-03-05T01:38:09.004Z,0.00
2023-03-05T01:39:09.010Z,0.00
2023-03-05T01:40:08.929Z,0.00
2023-03-05T01:41:08.896Z,0.00
2023-03-05T01:42:08.916Z,0.00
2023-03-05T01:43:08.747Z,0.00
2023-03-05T01:44:08.849Z,0.00
2023-03-05T01:45:08.749Z,0.00
2023-03-05T01:46:08.897Z,0.00
2023-03-05T01:47:08.813Z,0.00
2023-03-05T01:48:08.881Z,0.00
2023-03-05T01:49:08.971Z,0.00
2023-03-05T01:50:08.983Z,0.00
2023-03-05T01:51:08.984Z,0.00
2023-03-05T01:52:08.685Z,0.00
2023-03-05T01:53:09.022Z,0.00
2023-03-05T01:54:08.914Z,0.00
2023-03-05T01:55:09.220Z,0.00
2023-03-05T01:56:09.233Z,0.00
2023-03-05T01:57:08.655Z,0.00
2023-03-05T01:58:08.719Z,0.00
2023-03-05T01:59:08.941Z,0.00
2023-03-05T02:00:09.367Z,0.00
2023-03-05T02:01:09.687Z,0.00
2023-03-05T02:02:08.648Z,0.00
2023-03-05T02:03:08.618Z,0.00
2023-03-05T02:04:08.687Z,0.00
2023-03-05T02:05:08.610Z,0.00
2023-03-05T02:06:08.594Z,0.00
2023-03-05T02:07:08.605Z,0.00
2023-03-05T02:08:08.653Z,0.00
2023-03-05T02:09:08.648Z,0.00
2023-03-05T02:10:08.559Z,0.00
2023-03-05T02:11:08.553Z,0.00
2023-03-05T02:12:08.601Z,0.00
2023-03-05T02:13:08.710Z,0.00
2023-03-05T02:14:10.154Z,0.00
2023-03-05T02:15:08.537Z,0.00
2023-03-05T02:16:08.557Z,0.00
2023-03-05T02:17:08.694Z,0.00
2023-03-05T02:18:08.643Z,0.00
2023-03-05T02:19:08.544Z,0.00
2023-03-05T02:20:08.590Z,0.00
2023-03-05T02:21:08.564Z,0.00
2023-03-05T02:22:08.670Z,0.00
2023-03-05T02:23:08.830Z,0.00
2023-03-05T02:24:08.812Z,0.00
2023-03-05T02:25:08.530Z,0.00
2023-03-05T02:26:08.501Z,0.00
2023-03-05T02:27:08.932Z,0.00
2023-03-05T02:28:08.509Z,0.00
2023-03-05T02:29:08.635Z,0.00
2023-03-05T02:30:08.440Z,0.00
2023-03-05T02:31:08.933Z,0.00
2023-03-05T02:32:08.545Z,0.00
2023-03-05T02:33:08.957Z,0.00
2023-03-05T02:34:08.438Z,0.00
2023-03-05T02:35:09.000Z,0.00
2023-03-05T02:36:08.892Z,0.00
2023-03-05T02:37:08.826Z,0.00
2023-03-05T02:38:08.596Z,0.00
2023-03-05T02:39:08.408Z,0.00
2023-03-05T02:40:09.044Z,0.00
2023-03-05T02:41:08.385Z,0.00
2023-03-05T02:42:08.408Z,0.00
2023-03-05T02:43:08.404Z,0.00
2023-03-05T02:44:08.429Z,0.00
2023-03-05T02:45:08.369Z,0.00
2023-03-05T02:46:08.383Z,0.00
2023-03-05T02:47:08.537Z,0.00
2023-03-05T02:48:08.542Z,0.00
2023-03-05T02:49:08.658Z,0.00
2023-03-05T02:50:08.345Z,0.00
2023-03-05T02:51:08.572Z,0.00
2023-03-05T02:52:08.354Z,0.00
2023-03-05T02:53:08.368Z,0.00
2023-03-05T02:54:08.369Z,0.00
2023-03-05T02:55:08.292Z,0.00
2023-03-05T02:56:08.284Z,0.00
2023-03-05T02:57:08.297Z,0.00
2023-03-05T02:58:08.497Z,0.00
2023-03-05T02:59:08.501Z,0.00
2023-03-05T03:00:08.657Z,0.00
2023-03-05T03:01:08.637Z,0.00
2023-03-05T03:02:08.636Z,0.00
2023-03-05T03:03:08.696Z,0.00
2023-03-05T03:04:08.334Z,0.00
2023-03-05T03:05:08.720Z,0.00
2023-03-05T03:06:08.468Z,0.00
2023-03-05T03:07:08.835Z,0.00
2023-03-05T03:08:08.362Z,0.00
2023-03-05T03:09:08.207Z,0.00
2023-03-05T03:10:08.234Z,0.00
2023-03-05T03:11:08.490Z,0.00
2023-03-05T03:12:09.025Z,0.00
2023-03-05T03:13:08.176Z,0.00
2023-03-05T03:14:08.692Z,0.00
2023-03-05T03:15:08.548Z,0.00
2023-03-05T03:16:08.155Z,0.00
2023-03-05T03:17:08.519Z,0.00
2023-03-05T03:18:08.319Z,0.00
2023-03-05T03:19:08.149Z,0.00
2023-03-05T03:20:08.116Z,0.00
2023-03-05T03:21:08.366Z,0.00
2023-03-05T03:22:08.478Z,0.00
2023-03-05T03:23:08.585Z,0.00
2023-03-05T03:24:08.898Z,0.00
2023-03-05T03:25:08.268Z,0.00
2023-03-05T03:26:08.738Z,0.00
2023-03-05T03:27:08.180Z,0.00
2023-03-05T03:28:08.608Z,0.00
2023-03-05T03:29:08.846Z,0.00
2023-03-05T03:30:08.060Z,0.00
2023-03-05T03:31:08.165Z,0.00
2023-03-05T03:32:08.107Z,0.00
2023-03-05T03:33:08.033Z,0.00
2023-03-05T03:34:08.037Z,0.00
2023-03-05T03:35:08.046Z,0.00
2023-03-05T03:36:08.049Z,0.00
2023-03-05T03:37:08.057Z,0.00
2023-03-05T03:38:08.145Z,0.00
2023-03-05T03:39:08.193Z,0.00
2023-03-05T03:40:08.009Z,0.00
2023-03-05T03:41:08.028Z,0.00
2023-03-05T03:42:07.976Z,0.00
2023-03-05T03:43:08.003Z,0.00
2023-03-05T03:44:07.970Z,0.00
2023-03-05T03:45:08.114Z,0.00
2023-03-05T03:46:08.138Z,0.00
2023-03-05T03:47:08.137Z,0.00
2023-03-05T03:48:08.008Z,0.00
2023-03-05T03:49:08.779Z,0.00
2023-03-05T03:50:07.962Z,0.00
2023-03-05T03:51:08.275Z,0.00
2023-03-05T03:52:07.965Z,0.00
2023-03-05T03:53:07.903Z,0.00
2023-03-05T03:54:08.106Z,0.00
2023-03-05T03:55:07.881Z,0.00
2023-03-05T03:56:07.885Z,0.00
2023-03-05T03:57:08.153Z,0.00
2023-03-05T03:58:08.069Z,0.00
2023-03-05T03:59:08.430Z,0.00
2023-03-05T04:00:07.842Z,0.00
2023-03-05T04:01:08.297Z,0.00
2023-03-05T04:02:08.041Z,0.00
2023-03-05T04:03:08.212Z,0.00
2023-03-05T04:04:08.504Z,0.00
2023-03-05T04:05:08.060Z,0.00
2023-03-05T04:06:08.460Z,0.00
2023-03-05T04:07:08.071Z,0.00
2023-03-05T04:08:07.820Z,0.00
2023-03-05T04:09:08.207Z,0.00
2023-03-05T04:10:08.095Z,0.00
2023-03-05T04:11:08.499Z,0.00
2023-03-05T04:12:07.783Z,0.00
2023-03-05T04:13:07.769Z,0.00
2023-03-05T04:14:07.778Z,0.00
2023-03-05T04:15:07.809Z,0.00
2023-03-05T04:16:08.058Z,0.00
2023-03-05T04:17:07.788Z,0.00
2023-03-05T04:18:07.740Z,0.00
2023-03-05T04:19:07.732Z,0.00
2023-03-05T04:20:07.743Z,0.00
2023-03-05T04:21:07.756Z,0.00
2023-03-05T04:22:07.756Z,0.00
2023-03-05T04:23:07.827Z,0.00
2023-03-05T04:24:07.775Z,0.00
2023-03-05T04:25:07.775Z,0.00
2023-03-05T04:26:07.696Z,0.00
2023-03-05T04:27:07.856Z,0.00
2023-03-05T04:28:07.794Z,0.00
2023-03-05T04:29:07.863Z,0.00
2023-03-05T04:30:07.851Z,0.00
2023-03-05T04:31:07.953Z,0.00
2023-03-05T04:32:07.845Z,0.00
2023-03-05T04:33:08.030Z,0.00
2023-03-05T04:34:07.955Z,0.00
2023-03-05T04:35:08.048Z,0.00
2023-03-05T04:36:08.056Z,0.00
2023-03-05T04:37:07.679Z,0.00
2023-03-05T04:38:07.657Z,0.00
2023-03-05T04:39:07.650Z,0.00
2023-03-05T04:40:07.685Z,0.00
2023-03-05T04:41:07.665Z,0.00
2023-03-05T04:42:07.795Z,0.00
2023-03-05T04:43:07.589Z,0.00
2023-03-05T04:44:07.815Z,0.00
2023-03-05T04:45:07.593Z,0.00
2023-03-05T04:46:08.013Z,0.00
2023-03-05T04:47:07.563Z,0.00
2023-03-05T04:48:07.545Z,0.00
2023-03-05T04:49:07.532Z,0.00
2023-03-05T04:50:07.530Z,0.00
2023-03-05T04:51:07.593Z,0.00
2023-03-05T04:52:07.750Z,0.00
2023-03-05T04:53:07.751Z,0.00
2023-03-05T04:54:07.760Z,0.00
2023-03-05T04:55:07.770Z,0.00
2023-03-05T04:56:07.575Z,0.00
2023-03-05T04:57:07.990Z,0.00
2023-03-05T04:58:07.997Z,0.00
2023-03-05T04:59:08.000Z,0.00
2023-03-05T05:00:08.067Z,0.00
2023-03-05T05:01:07.608Z,0.00
2023-03-05T05:02:08.029Z,0.00
2023-03-05T05:03:08.285Z,0.00
2023-03-05T05:04:08.244Z,0.00
2023-03-05T05:05:07.627Z,0.00
2023-03-05T05:06:08.060Z,0.00
2023-03-05T05:07:07.439Z,0.00
2023-03-05T05:08:07.456Z,0.00
2023-03-05T05:09:07.659Z,0.00
2023-03-05T05:10:07.459Z,0.00
2023-03-05T05:11:07.472Z,0.00
2023-03-05T05:12:07.889Z,0.00
2023-03-05T05:13:07.746Z,0.00
2023-03-05T05:14:07.495Z,0.00
2023-03-05T05:15:07.373Z,0.00
2023-03-05T05:16:07.615Z,0.00
2023-03-05T05:17:07.715Z,0.00
2023-03-05T05:18:07.996Z,0.00
2023-03-05T05:19:07.363Z,0.00
2023-03-05T05:20:07.362Z,0.00
2023-03-05T05:21:08.011Z,0.00
2023-03-05T05:22:08.164Z,0.00
2023-03-05T05:23:07.810Z,0.00
2023-03-05T05:24:07.353Z,0.00
2023-03-05T05:25:07.362Z,0.00
2023-03-05T05:26:07.363Z,0.00
2023-03-05T05:27:07.372Z,0.00
2023-03-05T05:28:07.429Z,0.00
2023-03-05T05:29:07.592Z,0.00
2023-03-05T05:30:07.602Z,0.00
2023-03-05T05:31:07.321Z,0.00
2023-03-05T05:32:07.372Z,0.00
2023-03-05T05:33:07.281Z,0.00
2023-03-05T05:34:07.281Z,0.00
2023-03-05T05:35:07.273Z,0.00
2023-03-05T05:36:07.282Z,0.00
2023-03-05T05:37:07.240Z,4.00
2023-03-05T05:38:07.252Z,4.00
2023-03-05T05:39:07.259Z,1.00
2023-03-05T05:40:07.697Z,0.00
2023-03-05T05:41:07.205Z,0.00
2023-03-05T05:42:07.696Z,1.00
2023-03-05T05:43:07.293Z,1.00
2023-03-05T05:44:07.295Z,1.00
2023-03-05T05:45:07.198Z,3.00
2023-03-05T05:46:07.382Z,3.00
2023-03-05T05:47:07.183Z,3.00
2023-03-05T05:48:07.330Z,6.00
2023-03-05T05:49:07.364Z,10.00
2023-03-05T05:50:07.344Z,19.00
2023-03-05T05:51:07.341Z,15.00
2023-03-05T05:52:07.351Z,16.00
2023-03-05T05:53:07.364Z,16.00
2023-03-05T05:54:07.163Z,13.00
2023-03-05T05:55:07.172Z,16.00
2023-03-05T05:56:07.179Z,28.00
2023-03-05T05:57:07.388Z,50.00
2023-03-05T05:58:07.193Z,58.00
2023-03-05T05:59:07.397Z,58.00
2023-03-05T06:00:07.127Z,67.00
2023-03-05T06:01:07.170Z,84.00
2023-03-05T06:02:07.149Z,114.00
2023-03-05T06:03:07.234Z,119.00
2023-03-05T06:04:07.220Z,131.00
2023-03-05T06:05:07.229Z,149.00
2023-03-05T06:06:07.241Z,150.00
2023-03-05T06:07:07.038Z,159.00
2023-03-05T06:08:07.268Z,169.00
2023-03-05T06:09:07.259Z,186.00
2023-03-05T06:10:07.365Z,196.00
2023-03-05T06:11:07.017Z,188.00
2023-03-05T06:12:07.008Z,206.00
2023-03-05T06:13:07.526Z,233.00
2023-03-05T06:14:07.115Z,216.00
2023-03-05T06:15:07.309Z,119.00
2023-03-05T06:16:07.757Z,212.00
2023-03-05T06:17:07.548Z,270.00
2023-03-05T06:18:06.981Z,293.00
2023-03-05T06:19:06.972Z,284.00
2023-03-05T06:20:06.988Z,334.00
2023-03-05T06:21:06.962Z,291.00
2023-03-05T06:22:06.972Z,414.00
2023-03-05T06:23:06.944Z,529.00
2023-03-05T06:24:06.949Z,573.00
2023-03-05T06:25:06.940Z,550.00
2023-03-05T06:26:06.934Z,652.00
2023-03-05T06:27:06.965Z,692.00
2023-03-05T06:28:06.970Z,665.00
2023-03-05T06:29:07.074Z,761.00
2023-03-05T06:30:06.914Z,667.00
2023-03-05T06:31:06.946Z,674.00
2023-03-05T06:32:07.037Z,689.00
2023-03-05T06:33:07.017Z,633.00
2023-03-05T06:34:07.046Z,817.00
2023-03-05T06:35:06.858Z,922.00
2023-03-05T06:36:07.070Z,684.00
2023-03-05T06:37:07.078Z,829.00
2023-03-05T06:38:06.888Z,541.00
2023-03-05T06:39:07.097Z,561.00
2023-03-05T06:40:06.862Z,667.00
2023-03-05T06:41:06.867Z,887.00
2023-03-05T06:42:06.898Z,836.00
2023-03-05T06:43:06.883Z,832.00
2023-03-05T06:44:07.095Z,1225.00
2023-03-05T06:45:07.098Z,1186.00
2023-03-05T06:46:07.146Z,1288.00
2023-03-05T06:47:07.117Z,1126.00
2023-03-05T06:48:07.220Z,1260.00
2023-03-05T06:49:07.143Z,1294.00
2023-03-05T06:50:07.246Z,1010.00
2023-03-05T06:51:07.254Z,922.00
2023-03-05T06:52:06.949Z,1208.00
2023-03-05T06:53:06.753Z,1371.00
2023-03-05T06:54:06.956Z,1137.00
2023-03-05T06:55:07.306Z,1240.00
2023-03-05T06:56:07.163Z,1090.00
2023-03-05T06:57:06.777Z,1336.00
2023-03-05T06:58:06.822Z,1365.00
2023-03-05T06:59:06.788Z,1023.00
2023-03-05T07:00:06.705Z,1417.00
2023-03-05T07:01:06.787Z,1523.00
2023-03-05T07:02:06.858Z,1720.00
2023-03-05T07:03:07.421Z,1537.00
2023-03-05T07:04:07.416Z,1708.00
2023-03-05T07:05:07.232Z,2009.00
2023-03-05T07:06:06.660Z,1481.00
2023-03-05T07:07:06.663Z,1113.00
2023-03-05T07:08:07.250Z,2007.00
2023-03-05T07:09:07.258Z,2169.00
2023-03-05T07:10:07.502Z,2316.00
2023-03-05T07:11:07.067Z,1499.00
2023-03-05T07:12:07.496Z,2306.00
2023-03-05T07:13:06.737Z,1845.00
2023-03-05T07:14:07.115Z,1266.00
2023-03-05T07:15:06.915Z,1801.00
2023-03-05T07:16:07.652Z,2802.00
2023-03-05T07:17:06.699Z,3032.00
2023-03-05T07:18:06.627Z,2326.00
2023-03-05T07:19:06.575Z,2214.00
2023-03-05T07:20:06.730Z,2886.00
2023-03-05T07:21:06.786Z,3244.00
2023-03-05T07:22:06.556Z,3865.00
2023-03-05T07:23:06.766Z,3495.00
2023-03-05T07:24:06.768Z,3619.00
2023-03-05T07:25:06.577Z,4414.00
2023-03-05T07:26:06.566Z,4342.00
2023-03-05T07:27:06.774Z,3716.00
2023-03-05T07:28:06.579Z,4004.00
2023-03-05T07:29:06.614Z,4163.00
2023-03-05T07:30:06.793Z,2699.00
2023-03-05T07:31:06.846Z,4258.00
2023-03-05T07:32:07.268Z,4357.00
2023-03-05T07:33:06.809Z,4037.00
2023-03-05T07:34:06.483Z,4438.00
2023-03-05T07:35:06.470Z,4527.00
2023-03-05T07:36:06.531Z,4594.00
2023-03-05T07:37:06.452Z,4147.00
2023-03-05T07:38:06.472Z,3399.00
2023-03-05T07:39:06.497Z,3414.00
2023-03-05T07:40:06.444Z,4264.00
2023-03-05T07:41:06.489Z,4969.00
2023-03-05T07:42:06.493Z,3335.00
2023-03-05T07:43:06.470Z,2466.00
2023-03-05T07:44:06.474Z,2538.00
2023-03-05T07:45:06.397Z,2488.00
2023-03-05T07:46:06.448Z,1888.00
2023-03-05T07:47:06.505Z,2250.00
2023-03-05T07:48:06.500Z,2413.00
2023-03-05T07:49:06.390Z,3161.00
2023-03-05T07:50:06.528Z,2890.00
2023-03-05T07:51:06.427Z,3323.00
2023-03-05T07:52:06.367Z,4430.00
2023-03-05T07:53:07.397Z,4293.00
2023-03-05T07:54:06.493Z,5478.00
2023-03-05T07:55:06.548Z,4432.00
2023-03-05T07:56:06.566Z,3708.00
2023-03-05T07:57:06.567Z,4755.00
2023-03-05T07:58:06.573Z,5193.00
2023-03-05T07:59:06.372Z,6609.00
2023-03-05T08:00:06.588Z,6495.00
2023-03-05T08:01:06.586Z,5409.00
2023-03-05T08:02:06.617Z,5471.00
2023-03-05T08:03:06.289Z,6124.00
2023-03-05T08:04:06.426Z,6936.00
2023-03-05T08:05:06.360Z,5620.00
2023-03-05T08:06:06.618Z,4705.00
2023-03-05T08:07:06.260Z,5903.00
2023-03-05T08:08:06.624Z,9669.00
2023-03-05T08:09:06.429Z,4411.00
2023-03-05T08:10:06.854Z,4791.00
2023-03-05T08:11:06.854Z,8668.00
2023-03-05T08:12:06.453Z,7677.00
2023-03-05T08:13:06.272Z,7347.00
2023-03-05T08:14:06.286Z,7959.00
2023-03-05T08:15:06.304Z,7023.00
2023-03-05T08:16:06.397Z,6433.00
2023-03-05T08:17:06.196Z,7284.00
2023-03-05T08:18:06.501Z,6163.00
2023-03-05T08:19:06.394Z,4311.00
2023-03-05T08:20:06.228Z,2895.00
2023-03-05T08:21:06.531Z,6179.00
2023-03-05T08:22:06.630Z,6997.00
2023-03-05T08:23:06.150Z,7502.00
2023-03-05T08:24:06.752Z,7641.00
2023-03-05T08:25:06.143Z,5861.00
2023-03-05T08:26:06.541Z,4975.00
2023-03-05T08:27:06.769Z,4440.00
2023-03-05T08:28:06.260Z,5604.00
2023-03-05T08:29:07.004Z,4232.00
2023-03-05T08:30:06.572Z,5411.00
2023-03-05T08:31:06.207Z,3485.00
2023-03-05T08:32:06.188Z,5904.00
2023-03-05T08:33:06.178Z,9753.00
2023-03-05T08:34:06.113Z,12630.00
2023-03-05T08:35:06.398Z,8129.00
2023-03-05T08:36:06.196Z,7241.00
2023-03-05T08:37:06.070Z,5933.00
2023-03-05T08:38:06.221Z,3391.00
2023-03-05T08:39:06.218Z,3927.00
2023-03-05T08:40:06.231Z,4579.00
2023-03-05T08:41:06.241Z,3487.00
2023-03-05T08:42:08.831Z,3313.00
2023-03-05T08:43:06.096Z,2236.00
2023-03-05T08:44:06.259Z,3334.00
2023-03-05T08:45:06.265Z,4849.00
2023-03-05T08:46:06.053Z,3408.00
2023-03-05T08:47:06.274Z,2763.00
2023-03-05T08:48:06.283Z,4741.00
2023-03-05T08:49:06.042Z,3793.00
2023-03-05T08:50:06.292Z,3594.00
2023-03-05T08:51:06.008Z,3698.00
2023-03-05T08:52:06.305Z,2858.00
2023-03-05T08:53:06.316Z,5233.00
2023-03-05T08:54:06.120Z,2898.00
2023-03-05T08:55:06.331Z,8224.00
2023-03-05T08:56:05.964Z,9455.00
2023-03-05T08:57:05.967Z,10433.00
2023-03-05T08:58:05.972Z,6594.00
2023-03-05T08:59:06.351Z,3077.00
2023-03-05T09:00:06.157Z,9171.00
2023-03-05T09:01:06.373Z,5505.00
2023-03-05T09:02:06.446Z,3858.00
2023-03-05T09:03:06.402Z,3811.00
2023-03-05T09:04:06.486Z,3152.00
2023-03-05T09:05:06.192Z,2816.00
2023-03-05T09:06:06.434Z,1613.00
2023-03-05T09:07:05.883Z,2125.00
2023-03-05T09:08:05.880Z,2172.00
2023-03-05T09:09:05.859Z,10375.00
2023-03-05T09:10:06.021Z,9076.00
2023-03-05T09:11:05.891Z,11515.00
2023-03-05T09:12:05.863Z,8415.00
2023-03-05T09:13:06.049Z,10605.00
2023-03-05T09:14:06.048Z,11173.00
2023-03-05T09:15:05.848Z,10789.00
2023-03-05T09:16:06.141Z,9575.00
2023-03-05T09:17:06.287Z,10317.00
2023-03-05T09:18:06.287Z,11539.00
2023-03-05T09:19:05.921Z,11096.00
2023-03-05T09:20:06.382Z,8297.00
2023-03-05T09:21:06.315Z,6572.00
2023-03-05T09:22:06.334Z,5442.00
2023-03-05T09:23:05.924Z,3378.00
2023-03-05T09:24:05.768Z,2430.00
2023-03-05T09:25:05.903Z,2987.00
2023-03-05T09:26:06.113Z,6786.00
2023-03-05T09:27:06.573Z,4996.00
2023-03-05T09:28:06.375Z,3934.00
2023-03-05T09:29:05.923Z,4720.00
2023-03-05T09:30:06.548Z,5386.00
2023-03-05T09:31:05.940Z,4004.00
2023-03-05T09:32:06.472Z,6329.00
2023-03-05T09:33:06.502Z,7165.00
2023-03-05T09:34:05.763Z,5920.00
2023-03-05T09:35:05.761Z,7174.00
2023-03-05T09:36:06.185Z,7568.00
2023-03-05T09:37:06.399Z,6213.00
2023-03-05T09:38:05.781Z,5566.00
2023-03-05T09:39:05.671Z,9763.00
2023-03-05T09:40:06.599Z,14217.00
2023-03-05T09:41:06.824Z,12260.00
2023-03-05T09:42:05.632Z,10308.00
2023-03-05T09:43:05.618Z,9569.00
2023-03-05T09:44:05.652Z,10665.00
2023-03-05T09:45:05.829Z,4465.00
2023-03-05T09:46:05.921Z,8646.00
2023-03-05T09:47:05.675Z,4862.00
2023-03-05T09:48:05.856Z,4238.00
2023-03-05T09:49:05.687Z,4532.00
2023-03-05T09:50:06.079Z,9704.00
2023-03-05T09:51:06.081Z,7957.00
2023-03-05T09:52:05.714Z,6531.00
2023-03-05T09:53:06.097Z,6685.00
2023-03-05T09:54:05.554Z,7216.00
2023-03-05T09:55:05.548Z,10103.00
2023-03-05T09:56:05.561Z,12563.00
2023-03-05T09:57:05.523Z,8110.00
2023-03-05T09:58:05.531Z,8273.00
2023-03-05T09:59:05.516Z,5706.00
2023-03-05T10:00:07.050Z,4190.00
2023-03-05T10:01:05.528Z,7511.00
2023-03-05T10:02:05.551Z,8334.00
2023-03-05T10:03:05.639Z,9018.00
2023-03-05T10:04:05.614Z,10529.00
2023-03-05T10:05:05.574Z,12329.00
2023-03-05T10:06:05.600Z,14056.00
2023-03-05T10:07:06.861Z,14933.00
2023-03-05T10:08:05.465Z,15735.00
2023-03-05T10:09:05.476Z,16467.00
2023-03-05T10:10:05.635Z,17685.00
2023-03-05T10:11:05.653Z,17510.00
2023-03-05T10:12:05.651Z,17030.00
2023-03-05T10:13:05.473Z,16953.00
2023-03-05T10:14:05.510Z,16898.00
2023-03-05T10:15:05.661Z,17998.00
2023-03-05T10:16:05.672Z,19398.00
2023-03-05T10:17:05.425Z,19709.00
2023-03-05T10:18:05.439Z,19232.00
2023-03-05T10:19:05.451Z,19301.00
2023-03-05T10:20:05.448Z,18796.00
2023-03-05T10:21:05.451Z,19096.00
2023-03-05T10:22:05.430Z,17107.00
2023-03-05T10:23:05.339Z,15734.00
2023-03-05T10:24:05.347Z,15489.00
2023-03-05T10:25:05.359Z,15038.00
2023-03-05T10:26:05.372Z,15554.00
2023-03-05T10:27:05.351Z,15172.00
2023-03-05T10:28:05.320Z,16434.00
2023-03-05T10:29:05.305Z,14875.00
2023-03-05T10:30:05.312Z,13280.00
2023-03-05T10:31:05.312Z,15226.00
2023-03-05T10:32:06.064Z,15823.00
2023-03-05T10:33:05.944Z,16963.00
2023-03-05T10:34:05.328Z,17611.00
2023-03-05T10:35:05.277Z,15133.00
2023-03-05T10:36:05.446Z,16095.00
2023-03-05T10:37:05.970Z,14747.00
2023-03-05T10:38:05.270Z,15434.00
2023-03-05T10:39:05.256Z,16677.00
2023-03-05T10:40:05.286Z,18415.00
2023-03-05T10:41:05.258Z,17686.00
2023-03-05T10:42:05.244Z,17282.00
2023-03-05T10:43:05.215Z,17872.00
2023-03-05T10:44:05.225Z,19418.00
2023-03-05T10:45:05.205Z,20269.00
2023-03-05T10:46:05.286Z,19903.00
2023-03-05T10:47:05.248Z,17623.00
2023-03-05T10:48:05.200Z,15677.00
2023-03-05T10:49:05.275Z,15804.00
2023-03-05T10:50:05.283Z,17622.00
2023-03-05T10:51:05.173Z,18029.00
2023-03-05T10:52:05.169Z,19902.00
2023-03-05T10:53:05.161Z,21201.00
2023-03-05T10:54:05.157Z,20857.00
2023-03-05T10:55:05.132Z,21847.00
2023-03-05T10:56:05.154Z,21405.00
2023-03-05T10:57:05.142Z,19764.00
2023-03-05T10:58:05.152Z,18283.00
2023-03-05T10:59:05.307Z,17342.00
2023-03-05T11:00:05.111Z,18026.00
2023-03-05T11:01:05.261Z,16854.00
2023-03-05T11:02:05.419Z,15056.00
2023-03-05T11:03:05.402Z,16151.00
2023-03-05T11:04:05.437Z,15058.00
2023-03-05T11:05:05.313Z,14018.00
2023-03-05T11:06:05.161Z,14424.00
2023-03-05T11:07:05.240Z,13439.00
2023-03-05T11:08:05.267Z,14010.00
2023-03-05T11:09:05.256Z,12663.00
2023-03-05T11:10:05.180Z,12880.00
2023-03-05T11:11:05.132Z,14483.00
2023-03-05T11:12:05.467Z,17351.00
2023-03-05T11:13:05.044Z,17345.00
2023-03-05T11:14:05.062Z,16764.00
2023-03-05T11:15:05.065Z,16004.00
2023-03-05T11:16:05.140Z,16918.00
2023-03-05T11:17:05.072Z,18704.00
2023-03-05T11:18:04.987Z,15062.00
2023-03-05T11:19:05.001Z,11044.00
2023-03-05T11:20:05.662Z,8572.00
2023-03-05T11:21:05.650Z,6874.00
2023-03-05T11:22:05.438Z,6709.00
2023-03-05T11:23:05.646Z,6741.00
2023-03-05T11:24:05.043Z,5559.00
2023-03-05T11:25:05.763Z,3181.00
2023-03-05T11:26:04.960Z,2453.00
2023-03-05T11:27:05.269Z,3723.00
2023-03-05T11:28:05.549Z,5339.00
2023-03-05T11:29:04.960Z,5279.00
2023-03-05T11:30:05.508Z,3605.00
2023-03-05T11:31:05.018Z,3094.00
2023-03-05T11:32:04.983Z,3338.00
2023-03-05T11:33:04.903Z,2462.00
2023-03-05T11:34:04.989Z,3397.00
2023-03-05T11:35:04.873Z,6217.00
2023-03-05T11:36:04.909Z,5457.00
2023-03-05T11:37:05.006Z,5965.00
2023-03-05T11:38:04.995Z,7364.00
2023-03-05T11:39:05.137Z,7134.00
2023-03-05T11:40:05.151Z,7727.00
2023-03-05T11:41:05.150Z,7608.00
2023-03-05T11:42:04.851Z,7685.00
2023-03-05T11:43:05.255Z,7580.00
2023-03-05T11:44:04.958Z,6095.00
2023-03-05T11:45:04.797Z,6186.00
2023-03-05T11:46:05.317Z,5053.00
2023-03-05T11:47:04.994Z,3736.00
2023-03-05T11:48:04.809Z,3545.00
2023-03-05T11:49:04.805Z,3196.00
2023-03-05T11:50:04.815Z,3008.00
2023-03-05T11:51:04.904Z,3006.00
2023-03-05T11:52:04.929Z,3255.00
2023-03-05T11:53:05.038Z,3433.00
2023-03-05T11:54:04.787Z,3151.00
2023-03-05T11:55:05.065Z,3166.00
2023-03-05T11:56:05.151Z,2876.00
2023-03-05T11:57:04.938Z,3087.00
2023-03-05T11:58:05.148Z,3574.00
2023-03-05T11:59:04.740Z,4341.00
2023-03-05T12:00:04.748Z,6871.00
2023-03-05T12:01:04.763Z,8723.00
2023-03-05T12:02:04.764Z,8766.00
2023-03-05T12:03:04.820Z,7276.00
2023-03-05T12:04:04.753Z,5824.00
2023-03-05T12:05:04.786Z,5351.00
2023-03-05T12:06:04.830Z,5760.00
2023-03-05T12:07:04.864Z,6732.00
2023-03-05T12:08:04.646Z,7339.00
2023-03-05T12:09:04.646Z,5549.00
2023-03-05T12:10:04.658Z,5293.00
2023-03-05T12:11:04.651Z,6120.00
2023-03-05T12:12:04.637Z,5965.00
2023-03-05T12:13:04.632Z,4782.00
2023-03-05T12:14:04.639Z,5211.00
2023-03-05T12:15:04.723Z,5628.00
2023-03-05T12:16:04.836Z,7461.00
2023-03-05T12:17:04.605Z,8109.00
2023-03-05T12:18:04.594Z,7601.00
2023-03-05T12:19:04.590Z,5215.00
2023-03-05T12:20:04.747Z,4320.00
2023-03-05T12:21:04.557Z,5620.00
2023-03-05T12:22:04.906Z,4945.00
2023-03-05T12:23:04.914Z,5325.00
2023-03-05T12:24:05.025Z,6206.00
2023-03-05T12:25:04.523Z,6885.00
2023-03-05T12:26:05.043Z,7325.00
2023-03-05T12:27:05.048Z,6996.00
2023-03-05T12:28:04.821Z,4391.00
2023-03-05T12:29:05.064Z,2607.00
2023-03-05T12:30:05.087Z,3438.00
2023-03-05T12:31:04.515Z,5568.00
2023-03-05T12:32:05.226Z,8377.00
2023-03-05T12:33:05.182Z,10191.00
2023-03-05T12:34:04.858Z,11862.00
2023-03-05T12:35:04.503Z,11376.00
2023-03-05T12:36:05.050Z,9806.00
2023-03-05T12:37:05.219Z,10066.00
2023-03-05T12:38:24.218Z,9564.00